sensor_id;sensor_type;location;lat;lon;timestamp;temperature;humidity
8372;DHT22;4223;48.724;8.982;2022-10-26T00:02:14;10.60;99.90
8372;DHT22;4223;48.724;8.982;2022-10-26T00:04:41;10.60;99.90
8372;DHT22;4223;48.724;8.982;2022-10-26T00:07:08;10.60;99.90
8372;DHT22;4223;48.724;8.982;2022-10-26T00:09:34;10.60;99.90
8372;DHT22;4223;48.724;8.982;2022-10-26T00:12:02;10.60;99.90
8372;DHT22;4223;48.724;8.982;2022-10-26T00:14:29;10.60;99.90
8372;DHT22;4223;48.724;8.982;2022-10-26T00:16:57;10.60;99.90
8372;DHT22;4223;48.724;8.982;2022-10-26T00:19:24;10.70;99.90
8372;DHT22;4223;48.724;8.982;2022-10-26T00:21:54;10.70;99.90
8372;DHT22;4223;48.724;8.982;2022-10-26T00:24:21;10.70;99.90
8372;DHT22;4223;48.724;8.982;2022-10-26T00:26:47;10.70;99.90
8372;DHT22;4223;48.724;8.982;2022-10-26T00:29:14;10.70;99.90
8372;DHT22;4223;48.724;8.982;2022-10-26T00:31:42;10.80;99.90
8372;DHT22;4223;48.724;8.982;2022-10-26T00:34:11;10.80;99.90
8372;DHT22;4223;48.724;8.982;2022-10-26T00:36:38;10.80;99.90
8372;DHT22;4223;48.724;8.982;2022-10-26T00:39:05;10.80;99.90
8372;DHT22;4223;48.724;8.982;2022-10-26T00:41:33;10.80;99.90
8372;DHT22;4223;48.724;8.982;2022-10-26T00:44:00;10.80;99.90
8372;DHT22;4223;48.724;8.982;2022-10-26T00:46:30;10.80;99.90
8372;DHT22;4223;48.724;8.982;2022-10-26T00:49:00;10.80;99.90
8372;DHT22;4223;48.724;8.982;2022-10-26T00:51:32;10.90;99.90
8372;DHT22;4223;48.724;8.982;2022-10-26T00:54:04;10.90;99.90
8372;DHT22;4223;48.724;8.982;2022-10-26T00:56:33;10.90;99.90
8372;DHT22;4223;48.724;8.982;2022-10-26T00:59:02;11.00;99.90
8372;DHT22;4223;48.724;8.982;2022-10-26T01:01:32;11.00;99.90
8372;DHT22;4223;48.724;8.982;2022-10-26T01:03:59;11.00;99.90
8372;DHT22;4223;48.724;8.982;2022-10-26T01:06:29;11.10;99.90
8372;DHT22;4223;48.724;8.982;2022-10-26T01:08:56;11.10;99.90
8372;DHT22;4223;48.724;8.982;2022-10-26T01:11:23;11.10;99.90
8372;DHT22;4223;48.724;8.982;2022-10-26T01:13:51;11.10;99.90
8372;DHT22;4223;48.724;8.982;2022-10-26T01:16:31;11.20;99.90
8372;DHT22;4223;48.724;8.982;2022-10-26T01:19:15;11.20;99.90
8372;DHT22;4223;48.724;8.982;2022-10-26T01:21:54;11.30;99.90
8372;DHT22;4223;48.724;8.982;2022-10-26T01:24:40;11.30;99.90
8372;DHT22;4223;48.724;8.982;2022-10-26T01:27:21;11.30;99.90
8372;DHT22;4223;48.724;8.982;2022-10-26T01:30:11;11.30;99.90
8372;DHT22;4223;48.724;8.982;2022-10-26T01:32:42;11.30;99.90
8372;DHT22;4223;48.724;8.982;2022-10-26T01:35:14;11.30;99.90
8372;DHT22;4223;48.724;8.982;2022-10-26T01:37:47;11.30;99.90
8372;DHT22;4223;48.724;8.982;2022-10-26T01:40:19;11.30;99.90
8372;DHT22;4223;48.724;8.982;2022-10-26T01:42:53;11.30;99.90
8372;DHT22;4223;48.724;8.982;2022-10-26T01:45:23;11.30;99.90
8372;DHT22;4223;48.724;8.982;2022-10-26T01:47:52;11.30;99.90
8372;DHT22;4223;48.724;8.982;2022-10-26T01:50:20;11.30;99.90
8372;DHT22;4223;48.724;8.982;2022-10-26T01:52:48;11.30;99.90
8372;DHT22;4223;48.724;8.982;2022-10-26T01:55:45;11.30;99.90
8372;DHT22;4223;48.724;8.982;2022-10-26T01:58:23;11.30;99.90
8372;DHT22;4223;48.724;8.982;2022-10-26T02:01:03;11.40;99.90
8372;DHT22;4223;48.724;8.982;2022-10-26T02:03:36;11.40;99.90
8372;DHT22;4223;48.724;8.982;2022-10-26T02:06:12;11.30;99.90
8372;DHT22;4223;48.724;8.982;2022-10-26T02:08:55;11.30;99.90
8372;DHT22;4223;48.724;8.982;2022-10-26T02:11:31;11.30;99.90
8372;DHT22;4223;48.724;8.982;2022-10-26T02:14:06;11.30;99.90
8372;DHT22;4223;48.724;8.982;2022-10-26T02:16:42;11.30;99.90
8372;DHT22;4223;48.724;8.982;2022-10-26T02:19:23;11.30;99.90
8372;DHT22;4223;48.724;8.982;2022-10-26T02:21:55;11.20;99.90
8372;DHT22;4223;48.724;8.982;2022-10-26T02:24:26;11.20;99.90
8372;DHT22;4223;48.724;8.982;2022-10-26T02:26:55;11.20;99.90
8372;DHT22;4223;48.724;8.982;2022-10-26T02:29:24;11.30;99.90
8372;DHT22;4223;48.724;8.982;2022-10-26T02:31:53;11.20;99.90
8372;DHT22;4223;48.724;8.982;2022-10-26T02:34:24;11.20;99.90
8372;DHT22;4223;48.724;8.982;2022-10-26T02:36:55;11.20;99.90
8372;DHT22;4223;48.724;8.982;2022-10-26T02:39:24;11.30;99.90
8372;DHT22;4223;48.724;8.982;2022-10-26T02:41:54;11.30;99.90
8372;DHT22;4223;48.724;8.982;2022-10-26T02:44:24;11.30;99.90
8372;DHT22;4223;48.724;8.982;2022-10-26T02:46:53;11.30;99.90
8372;DHT22;4223;48.724;8.982;2022-10-26T02:49:21;11.40;99.90
8372;DHT22;4223;48.724;8.982;2022-10-26T02:51:51;11.40;99.90
8372;DHT22;4223;48.724;8.982;2022-10-26T02:54:25;11.40;99.90
8372;DHT22;4223;48.724;8.982;2022-10-26T02:56:57;11.40;99.90
8372;DHT22;4223;48.724;8.982;2022-10-26T02:59:29;11.40;99.90
8372;DHT22;4223;48.724;8.982;2022-10-26T03:01:59;11.40;99.90
8372;DHT22;4223;48.724;8.982;2022-10-26T03:04:29;11.40;99.90
8372;DHT22;4223;48.724;8.982;2022-10-26T03:06:57;11.40;99.90
8372;DHT22;4223;48.724;8.982;2022-10-26T03:09:24;11.40;99.90
8372;DHT22;4223;48.724;8.982;2022-10-26T03:11:51;11.40;99.90
8372;DHT22;4223;48.724;8.982;2022-10-26T03:14:18;11.40;99.90
8372;DHT22;4223;48.724;8.982;2022-10-26T03:16:45;11.40;99.90
8372;DHT22;4223;48.724;8.982;2022-10-26T03:19:14;11.40;99.90
8372;DHT22;4223;48.724;8.982;2022-10-26T03:21:41;11.40;99.90
8372;DHT22;4223;48.724;8.982;2022-10-26T03:24:08;11.40;99.90
8372;DHT22;4223;48.724;8.982;2022-10-26T03:26:35;11.40;99.90
8372;DHT22;4223;48.724;8.982;2022-10-26T03:29:02;11.40;99.90
8372;DHT22;4223;48.724;8.982;2022-10-26T03:31:28;11.40;99.90
8372;DHT22;4223;48.724;8.982;2022-10-26T03:33:55;11.50;99.90
8372;DHT22;4223;48.724;8.982;2022-10-26T03:36:24;11.50;99.90
8372;DHT22;4223;48.724;8.982;2022-10-26T03:38:50;11.60;99.90
8372;DHT22;4223;48.724;8.982;2022-10-26T03:41:17;11.60;99.90
8372;DHT22;4223;48.724;8.982;2022-10-26T03:43:44;11.70;99.90
8372;DHT22;4223;48.724;8.982;2022-10-26T03:46:12;11.80;99.90
8372;DHT22;4223;48.724;8.982;2022-10-26T03:48:39;11.90;99.90
8372;DHT22;4223;48.724;8.982;2022-10-26T03:51:06;11.90;99.90
8372;DHT22;4223;48.724;8.982;2022-10-26T03:53:34;12.00;99.90
8372;DHT22;4223;48.724;8.982;2022-10-26T03:56:01;12.10;99.90
8372;DHT22;4223;48.724;8.982;2022-10-26T03:58:28;12.10;99.90
8372;DHT22;4223;48.724;8.982;2022-10-26T04:00:55;12.20;99.90
8372;DHT22;4223;48.724;8.982;2022-10-26T04:03:21;12.30;99.90
8372;DHT22;4223;48.724;8.982;2022-10-26T04:05:48;12.30;99.90
8372;DHT22;4223;48.724;8.982;2022-10-26T04:08:15;12.40;99.90
8372;DHT22;4223;48.724;8.982;2022-10-26T04:10:44;12.40;99.90
8372;DHT22;4223;48.724;8.982;2022-10-26T04:13:11;12.50;99.90
8372;DHT22;4223;48.724;8.982;2022-10-26T04:15:38;12.50;99.90
8372;DHT22;4223;48.724;8.982;2022-10-26T04:18:05;12.50;99.90
8372;DHT22;4223;48.724;8.982;2022-10-26T04:20:32;12.60;99.90
8372;DHT22;4223;48.724;8.982;2022-10-26T04:23:02;12.60;99.90
8372;DHT22;4223;48.724;8.982;2022-10-26T04:25:30;12.60;99.90
8372;DHT22;4223;48.724;8.982;2022-10-26T04:27:58;12.60;99.90
8372;DHT22;4223;48.724;8.982;2022-10-26T04:30:25;12.50;99.90
8372;DHT22;4223;48.724;8.982;2022-10-26T04:32:52;12.50;99.90
8372;DHT22;4223;48.724;8.982;2022-10-26T04:35:19;12.50;99.90
8372;DHT22;4223;48.724;8.982;2022-10-26T04:37:46;12.50;99.90
8372;DHT22;4223;48.724;8.982;2022-10-26T04:40:13;12.60;99.90
8372;DHT22;4223;48.724;8.982;2022-10-26T04:42:40;12.60;99.90
8372;DHT22;4223;48.724;8.982;2022-10-26T04:45:09;12.60;99.90
8372;DHT22;4223;48.724;8.982;2022-10-26T04:47:37;12.50;99.90
8372;DHT22;4223;48.724;8.982;2022-10-26T04:50:05;12.40;99.90
8372;DHT22;4223;48.724;8.982;2022-10-26T04:52:32;12.40;99.90
8372;DHT22;4223;48.724;8.982;2022-10-26T04:54:59;12.40;99.90
8372;DHT22;4223;48.724;8.982;2022-10-26T04:57:26;12.40;99.90
8372;DHT22;4223;48.724;8.982;2022-10-26T04:59:53;12.40;99.90
8372;DHT22;4223;48.724;8.982;2022-10-26T05:02:21;12.30;99.90
8372;DHT22;4223;48.724;8.982;2022-10-26T05:04:48;12.30;99.90
8372;DHT22;4223;48.724;8.982;2022-10-26T05:07:15;12.20;99.90
8372;DHT22;4223;48.724;8.982;2022-10-26T05:09:42;12.20;99.90
8372;DHT22;4223;48.724;8.982;2022-10-26T05:12:09;12.20;99.90
8372;DHT22;4223;48.724;8.982;2022-10-26T05:14:36;12.20;99.90
8372;DHT22;4223;48.724;8.982;2022-10-26T05:17:03;12.20;99.90
8372;DHT22;4223;48.724;8.982;2022-10-26T05:19:31;12.30;99.90
8372;DHT22;4223;48.724;8.982;2022-10-26T05:21:58;12.30;99.90
8372;DHT22;4223;48.724;8.982;2022-10-26T05:24:25;12.30;99.90
8372;DHT22;4223;48.724;8.982;2022-10-26T05:26:52;12.20;99.90
8372;DHT22;4223;48.724;8.982;2022-10-26T05:29:18;12.20;99.90
8372;DHT22;4223;48.724;8.982;2022-10-26T05:31:45;12.20;99.90
8372;DHT22;4223;48.724;8.982;2022-10-26T05:34:12;12.30;99.90
8372;DHT22;4223;48.724;8.982;2022-10-26T05:36:40;12.30;99.90
8372;DHT22;4223;48.724;8.982;2022-10-26T05:39:07;12.30;99.90
8372;DHT22;4223;48.724;8.982;2022-10-26T05:41:34;12.30;99.90
8372;DHT22;4223;48.724;8.982;2022-10-26T05:44:01;12.30;99.90
8372;DHT22;4223;48.724;8.982;2022-10-26T05:46:28;12.30;99.90
8372;DHT22;4223;48.724;8.982;2022-10-26T05:48:54;12.30;99.90
8372;DHT22;4223;48.724;8.982;2022-10-26T05:51:21;12.30;99.90
8372;DHT22;4223;48.724;8.982;2022-10-26T05:53:50;12.40;99.90
8372;DHT22;4223;48.724;8.982;2022-10-26T05:56:20;12.40;99.90
8372;DHT22;4223;48.724;8.982;2022-10-26T05:58:54;12.40;99.90
8372;DHT22;4223;48.724;8.982;2022-10-26T06:01:29;12.40;99.90
8372;DHT22;4223;48.724;8.982;2022-10-26T06:04:07;12.40;99.90
8372;DHT22;4223;48.724;8.982;2022-10-26T06:06:40;12.50;99.90
8372;DHT22;4223;48.724;8.982;2022-10-26T06:09:11;12.50;99.90
8372;DHT22;4223;48.724;8.982;2022-10-26T06:11:38;12.50;99.90
8372;DHT22;4223;48.724;8.982;2022-10-26T06:14:07;12.50;99.90
8372;DHT22;4223;48.724;8.982;2022-10-26T06:16:40;12.50;99.90
8372;DHT22;4223;48.724;8.982;2022-10-26T06:19:20;12.50;99.90
8372;DHT22;4223;48.724;8.982;2022-10-26T06:22:00;12.40;99.90
8372;DHT22;4223;48.724;8.982;2022-10-26T06:24:36;12.50;99.90
8372;DHT22;4223;48.724;8.982;2022-10-26T06:27:18;12.40;99.90
8372;DHT22;4223;48.724;8.982;2022-10-26T06:29:55;12.40;99.90
8372;DHT22;4223;48.724;8.982;2022-10-26T06:32:25;12.40;99.90
8372;DHT22;4223;48.724;8.982;2022-10-26T06:34:56;12.50;99.90
8372;DHT22;4223;48.724;8.982;2022-10-26T06:37:27;12.50;99.90
8372;DHT22;4223;48.724;8.982;2022-10-26T06:39:56;12.50;99.90
8372;DHT22;4223;48.724;8.982;2022-10-26T06:42:24;12.50;99.90
8372;DHT22;4223;48.724;8.982;2022-10-26T06:44:51;12.50;99.90
8372;DHT22;4223;48.724;8.982;2022-10-26T06:47:21;12.50;99.90
8372;DHT22;4223;48.724;8.982;2022-10-26T06:49:57;12.50;99.90
8372;DHT22;4223;48.724;8.982;2022-10-26T06:52:31;12.60;99.90
8372;DHT22;4223;48.724;8.982;2022-10-26T06:55:02;12.60;99.90
8372;DHT22;4223;48.724;8.982;2022-10-26T06:57:33;12.70;99.90
8372;DHT22;4223;48.724;8.982;2022-10-26T07:00:03;12.70;99.90
8372;DHT22;4223;48.724;8.982;2022-10-26T07:02:30;12.70;99.90
8372;DHT22;4223;48.724;8.982;2022-10-26T07:04:57;12.80;99.90
8372;DHT22;4223;48.724;8.982;2022-10-26T07:07:26;12.80;99.90
8372;DHT22;4223;48.724;8.982;2022-10-26T07:09:54;12.80;99.90
8372;DHT22;4223;48.724;8.982;2022-10-26T07:12:22;12.90;99.90
8372;DHT22;4223;48.724;8.982;2022-10-26T07:14:49;12.90;99.90
8372;DHT22;4223;48.724;8.982;2022-10-26T07:17:16;13.00;99.90
8372;DHT22;4223;48.724;8.982;2022-10-26T07:19:43;13.00;99.90
8372;DHT22;4223;48.724;8.982;2022-10-26T07:22:10;13.00;99.90
8372;DHT22;4223;48.724;8.982;2022-10-26T07:24:37;13.00;99.90
8372;DHT22;4223;48.724;8.982;2022-10-26T07:27:03;13.10;99.90
8372;DHT22;4223;48.724;8.982;2022-10-26T07:29:32;13.10;99.90
8372;DHT22;4223;48.724;8.982;2022-10-26T07:31:59;13.10;99.90
8372;DHT22;4223;48.724;8.982;2022-10-26T07:34:26;13.10;99.90
8372;DHT22;4223;48.724;8.982;2022-10-26T07:36:53;13.10;99.90
8372;DHT22;4223;48.724;8.982;2022-10-26T07:39:20;13.20;99.90
8372;DHT22;4223;48.724;8.982;2022-10-26T07:41:47;13.20;99.90
8372;DHT22;4223;48.724;8.982;2022-10-26T07:44:13;13.30;99.90
8372;DHT22;4223;48.724;8.982;2022-10-26T07:46:42;13.30;99.90
8372;DHT22;4223;48.724;8.982;2022-10-26T07:49:09;13.40;99.90
8372;DHT22;4223;48.724;8.982;2022-10-26T07:51:36;13.40;99.90
8372;DHT22;4223;48.724;8.982;2022-10-26T07:54:03;13.40;99.90
8372;DHT22;4223;48.724;8.982;2022-10-26T07:56:29;13.50;99.90
8372;DHT22;4223;48.724;8.982;2022-10-26T07:58:56;13.50;99.90
8372;DHT22;4223;48.724;8.982;2022-10-26T08:01:23;13.60;99.90
8372;DHT22;4223;48.724;8.982;2022-10-26T08:03:53;13.70;99.90
8372;DHT22;4223;48.724;8.982;2022-10-26T08:06:20;13.80;99.90
8372;DHT22;4223;48.724;8.982;2022-10-26T08:08:47;13.90;99.90
8372;DHT22;4223;48.724;8.982;2022-10-26T08:11:15;13.90;99.90
8372;DHT22;4223;48.724;8.982;2022-10-26T08:13:42;13.90;99.90
8372;DHT22;4223;48.724;8.982;2022-10-26T08:16:09;14.00;99.90
8372;DHT22;4223;48.724;8.982;2022-10-26T08:18:35;14.00;99.90
8372;DHT22;4223;48.724;8.982;2022-10-26T08:21:05;14.10;99.90
8372;DHT22;4223;48.724;8.982;2022-10-26T08:23:32;14.10;99.90
8372;DHT22;4223;48.724;8.982;2022-10-26T08:25:59;14.20;99.90
8372;DHT22;4223;48.724;8.982;2022-10-26T08:28:27;14.20;99.90
8372;DHT22;4223;48.724;8.982;2022-10-26T08:30:54;14.20;99.90
8372;DHT22;4223;48.724;8.982;2022-10-26T08:33:22;14.30;99.90
8372;DHT22;4223;48.724;8.982;2022-10-26T08:35:54;14.30;99.90
8372;DHT22;4223;48.724;8.982;2022-10-26T08:38:23;14.40;99.90
8372;DHT22;4223;48.724;8.982;2022-10-26T08:40:51;14.50;99.90
8372;DHT22;4223;48.724;8.982;2022-10-26T08:43:21;14.60;99.90
8372;DHT22;4223;48.724;8.982;2022-10-26T08:45:52;14.60;99.90
8372;DHT22;4223;48.724;8.982;2022-10-26T08:48:22;14.70;99.90
8372;DHT22;4223;48.724;8.982;2022-10-26T08:50:53;14.80;99.90
8372;DHT22;4223;48.724;8.982;2022-10-26T08:53:25;14.90;99.90
8372;DHT22;4223;48.724;8.982;2022-10-26T08:55:58;15.10;99.90
8372;DHT22;4223;48.724;8.982;2022-10-26T08:58:29;15.20;97.70
8372;DHT22;4223;48.724;8.982;2022-10-26T09:00:57;15.50;94.00
8372;DHT22;4223;48.724;8.982;2022-10-26T09:03:25;16.30;88.20
8372;DHT22;4223;48.724;8.982;2022-10-26T09:06:03;17.60;1.00
8372;DHT22;4223;48.724;8.982;2022-10-26T09:08:38;18.00;1.00
8372;DHT22;4223;48.724;8.982;2022-10-26T09:11:19;17.30;1.00
8372;DHT22;4223;48.724;8.982;2022-10-26T09:13:58;16.80;1.00
8372;DHT22;4223;48.724;8.982;2022-10-26T09:16:27;16.80;1.20
8372;DHT22;4223;48.724;8.982;2022-10-26T09:19:06;16.40;40.70
8372;DHT22;4223;48.724;8.982;2022-10-26T09:21:44;16.50;37.40
8372;DHT22;4223;48.724;8.982;2022-10-26T09:24:17;16.60;25.90
8372;DHT22;4223;48.724;8.982;2022-10-26T09:27:01;18.10;1.00
8372;DHT22;4223;48.724;8.982;2022-10-26T09:29:41;19.60;99.90
8372;DHT22;4223;48.724;8.982;2022-10-26T09:32:14;20.60;99.90
8372;DHT22;4223;48.724;8.982;2022-10-26T09:34:47;20.70;1.00
8372;DHT22;4223;48.724;8.982;2022-10-26T09:37:17;20.50;1.00
8372;DHT22;4223;48.724;8.982;2022-10-26T09:39:51;21.00;99.90
8372;DHT22;4223;48.724;8.982;2022-10-26T09:42:25;21.30;99.90
8372;DHT22;4223;48.724;8.982;2022-10-26T09:44:56;20.10;99.90
8372;DHT22;4223;48.724;8.982;2022-10-26T09:47:30;20.60;1.00
8372;DHT22;4223;48.724;8.982;2022-10-26T09:50:04;19.90;99.90
8372;DHT22;4223;48.724;8.982;2022-10-26T09:52:32;19.10;99.90
8372;DHT22;4223;48.724;8.982;2022-10-26T09:55:00;18.50;1.00
8372;DHT22;4223;48.724;8.982;2022-10-26T09:57:27;17.80;1.00
8372;DHT22;4223;48.724;8.982;2022-10-26T09:59:55;17.60;1.00
8372;DHT22;4223;48.724;8.982;2022-10-26T10:02:36;17.50;1.00
8372;DHT22;4223;48.724;8.982;2022-10-26T10:05:20;17.50;1.00
8372;DHT22;4223;48.724;8.982;2022-10-26T10:07:47;18.90;1.00
8372;DHT22;4223;48.724;8.982;2022-10-26T10:10:17;20.80;1.00
8372;DHT22;4223;48.724;8.982;2022-10-26T10:12:45;22.50;87.10
8372;DHT22;4223;48.724;8.982;2022-10-26T10:15:20;23.70;99.90
8372;DHT22;4223;48.724;8.982;2022-10-26T10:17:49;24.20;99.90
8372;DHT22;4223;48.724;8.982;2022-10-26T10:20:20;24.40;37.70
8372;DHT22;4223;48.724;8.982;2022-10-26T10:22:54;24.90;1.00
8372;DHT22;4223;48.724;8.982;2022-10-26T10:25:32;24.40;1.00
8372;DHT22;4223;48.724;8.982;2022-10-26T10:27:59;22.90;99.90
8372;DHT22;4223;48.724;8.982;2022-10-26T10:30:28;22.30;99.90
8372;DHT22;4223;48.724;8.982;2022-10-26T10:33:07;21.60;1.00
8372;DHT22;4223;48.724;8.982;2022-10-26T10:35:36;21.30;1.00
8372;DHT22;4223;48.724;8.982;2022-10-26T10:38:04;21.00;1.00
8372;DHT22;4223;48.724;8.982;2022-10-26T10:40:32;20.80;1.00
8372;DHT22;4223;48.724;8.982;2022-10-26T10:43:05;21.20;99.90
8372;DHT22;4223;48.724;8.982;2022-10-26T10:45:36;22.60;1.00
8372;DHT22;4223;48.724;8.982;2022-10-26T10:48:04;23.60;99.90
8372;DHT22;4223;48.724;8.982;2022-10-26T10:50:50;23.90;1.00
8372;DHT22;4223;48.724;8.982;2022-10-26T10:53:20;23.30;1.00
8372;DHT22;4223;48.724;8.982;2022-10-26T10:58:48;21.60;1.00
8372;DHT22;4223;48.724;8.982;2022-10-26T11:01:20;21.20;19.50
8372;DHT22;4223;48.724;8.982;2022-10-26T11:04:05;21.00;1.00
8372;DHT22;4223;48.724;8.982;2022-10-26T11:06:38;20.90;99.90
8372;DHT22;4223;48.724;8.982;2022-10-26T11:09:08;20.90;99.90
8372;DHT22;4223;48.724;8.982;2022-10-26T11:11:40;20.70;99.90
8372;DHT22;4223;48.724;8.982;2022-10-26T11:14:11;20.40;99.90
8372;DHT22;4223;48.724;8.982;2022-10-26T11:16:43;20.50;1.00
8372;DHT22;4223;48.724;8.982;2022-10-26T11:19:17;20.70;99.90
8372;DHT22;4223;48.724;8.982;2022-10-26T11:21:49;20.90;99.90
8372;DHT22;4223;48.724;8.982;2022-10-26T11:24:21;20.40;1.00
8372;DHT22;4223;48.724;8.982;2022-10-26T11:26:52;20.70;1.00
8372;DHT22;4223;48.724;8.982;2022-10-26T11:29:26;20.90;99.90
8372;DHT22;4223;48.724;8.982;2022-10-26T11:32:00;21.20;1.00
8372;DHT22;4223;48.724;8.982;2022-10-26T11:34:32;21.30;99.90
8372;DHT22;4223;48.724;8.982;2022-10-26T11:37:04;21.40;99.90
8372;DHT22;4223;48.724;8.982;2022-10-26T11:39:38;21.50;1.00
8372;DHT22;4223;48.724;8.982;2022-10-26T11:42:19;21.60;8.70
8372;DHT22;4223;48.724;8.982;2022-10-26T11:44:52;21.30;99.90
8372;DHT22;4223;48.724;8.982;2022-10-26T11:47:25;21.40;99.90
8372;DHT22;4223;48.724;8.982;2022-10-26T11:50:02;21.20;1.00
8372;DHT22;4223;48.724;8.982;2022-10-26T11:52:36;20.90;89.00
8372;DHT22;4223;48.724;8.982;2022-10-26T11:55:08;20.90;1.00
8372;DHT22;4223;48.724;8.982;2022-10-26T11:57:37;20.70;99.90
8372;DHT22;4223;48.724;8.982;2022-10-26T12:00:07;20.50;99.90
8372;DHT22;4223;48.724;8.982;2022-10-26T12:02:37;20.30;99.90
8372;DHT22;4223;48.724;8.982;2022-10-26T12:05:16;20.20;1.00
8372;DHT22;4223;48.724;8.982;2022-10-26T12:07:45;20.10;99.90
8372;DHT22;4223;48.724;8.982;2022-10-26T12:10:22;19.90;99.90
8372;DHT22;4223;48.724;8.982;2022-10-26T12:12:56;20.00;1.00
8372;DHT22;4223;48.724;8.982;2022-10-26T12:15:29;19.90;1.00
8372;DHT22;4223;48.724;8.982;2022-10-26T12:18:04;19.80;1.00
8372;DHT22;4223;48.724;8.982;2022-10-26T12:20:53;19.80;1.00
8372;DHT22;4223;48.724;8.982;2022-10-26T12:23:22;19.60;99.90
8372;DHT22;4223;48.724;8.982;2022-10-26T12:25:49;19.60;1.00
8372;DHT22;4223;48.724;8.982;2022-10-26T12:28:39;19.70;99.90
8372;DHT22;4223;48.724;8.982;2022-10-26T12:31:40;19.80;1.00
8372;DHT22;4223;48.724;8.982;2022-10-26T12:34:11;19.90;99.90
8372;DHT22;4223;48.724;8.982;2022-10-26T12:36:48;20.00;1.00
8372;DHT22;4223;48.724;8.982;2022-10-26T12:39:27;20.00;99.90
8372;DHT22;4223;48.724;8.982;2022-10-26T12:41:56;20.00;99.90
8372;DHT22;4223;48.724;8.982;2022-10-26T12:44:36;20.10;99.90
8372;DHT22;4223;48.724;8.982;2022-10-26T12:47:04;20.30;1.00
8372;DHT22;4223;48.724;8.982;2022-10-26T12:52:48;20.40;99.90
8372;DHT22;4223;48.724;8.982;2022-10-26T12:55:48;20.60;96.10
8372;DHT22;4223;48.724;8.982;2022-10-26T13:01:51;20.90;1.00
8372;DHT22;4223;48.724;8.982;2022-10-26T13:07:21;22.20;1.00
8372;DHT22;4223;48.724;8.982;2022-10-26T13:09:58;22.70;81.70
8372;DHT22;4223;48.724;8.982;2022-10-26T13:12:28;22.70;70.70
8372;DHT22;4223;48.724;8.982;2022-10-26T13:15:03;22.80;26.10
8372;DHT22;4223;48.724;8.982;2022-10-26T13:17:33;23.00;1.00
8372;DHT22;4223;48.724;8.982;2022-10-26T13:20:02;23.20;1.00
8372;DHT22;4223;48.724;8.982;2022-10-26T13:22:30;23.80;1.00
8372;DHT22;4223;48.724;8.982;2022-10-26T13:25:00;24.20;1.00
8372;DHT22;4223;48.724;8.982;2022-10-26T13:27:41;24.30;1.00
8372;DHT22;4223;48.724;8.982;2022-10-26T13:30:33;24.00;1.00
8372;DHT22;4223;48.724;8.982;2022-10-26T13:33:07;24.00;1.00
8372;DHT22;4223;48.724;8.982;2022-10-26T13:35:39;24.30;1.00
8372;DHT22;4223;48.724;8.982;2022-10-26T13:38:09;24.70;1.00
8372;DHT22;4223;48.724;8.982;2022-10-26T13:40:38;25.00;1.00
8372;DHT22;4223;48.724;8.982;2022-10-26T13:43:10;25.20;1.00
8372;DHT22;4223;48.724;8.982;2022-10-26T13:45:46;25.40;99.90
8372;DHT22;4223;48.724;8.982;2022-10-26T13:48:19;25.90;99.90
8372;DHT22;4223;48.724;8.982;2022-10-26T13:50:51;25.40;99.90
8372;DHT22;4223;48.724;8.982;2022-10-26T13:53:21;25.80;99.90
8372;DHT22;4223;48.724;8.982;2022-10-26T13:55:51;25.50;99.90
8372;DHT22;4223;48.724;8.982;2022-10-26T13:58:24;25.20;99.90
8372;DHT22;4223;48.724;8.982;2022-10-26T14:01:01;25.40;99.90
8372;DHT22;4223;48.724;8.982;2022-10-26T14:03:29;25.30;99.90
8372;DHT22;4223;48.724;8.982;2022-10-26T14:05:56;25.20;99.90
8372;DHT22;4223;48.724;8.982;2022-10-26T14:08:23;25.20;99.90
8372;DHT22;4223;48.724;8.982;2022-10-26T14:10:56;25.30;99.90
8372;DHT22;4223;48.724;8.982;2022-10-26T14:13:24;25.60;99.90
8372;DHT22;4223;48.724;8.982;2022-10-26T14:15:54;25.60;99.90
8372;DHT22;4223;48.724;8.982;2022-10-26T14:18:23;25.40;99.90
8372;DHT22;4223;48.724;8.982;2022-10-26T14:20:56;25.10;99.90
8372;DHT22;4223;48.724;8.982;2022-10-26T14:23:26;25.30;99.90
8372;DHT22;4223;48.724;8.982;2022-10-26T14:25:54;25.20;99.90
8372;DHT22;4223;48.724;8.982;2022-10-26T14:28:25;25.20;99.90
8372;DHT22;4223;48.724;8.982;2022-10-26T14:30:52;25.30;99.90
8372;DHT22;4223;48.724;8.982;2022-10-26T14:33:26;25.20;99.90
8372;DHT22;4223;48.724;8.982;2022-10-26T14:35:55;25.30;99.90
8372;DHT22;4223;48.724;8.982;2022-10-26T14:38:24;25.30;99.90
8372;DHT22;4223;48.724;8.982;2022-10-26T14:40:55;25.20;99.90
8372;DHT22;4223;48.724;8.982;2022-10-26T14:43:24;24.70;99.90
8372;DHT22;4223;48.724;8.982;2022-10-26T14:45:52;24.60;99.90
8372;DHT22;4223;48.724;8.982;2022-10-26T14:48:24;24.40;99.90
8372;DHT22;4223;48.724;8.982;2022-10-26T14:51:05;24.00;99.90
8372;DHT22;4223;48.724;8.982;2022-10-26T14:53:36;23.40;99.90
8372;DHT22;4223;48.724;8.982;2022-10-26T14:56:05;22.70;1.00
8372;DHT22;4223;48.724;8.982;2022-10-26T14:58:32;22.40;1.00
8372;DHT22;4223;48.724;8.982;2022-10-26T15:01:28;22.00;1.00
8372;DHT22;4223;48.724;8.982;2022-10-26T15:03:56;21.60;1.00
8372;DHT22;4223;48.724;8.982;2022-10-26T15:06:36;21.40;1.00
8372;DHT22;4223;48.724;8.982;2022-10-26T15:09:04;21.10;39.70
8372;DHT22;4223;48.724;8.982;2022-10-26T15:11:33;20.90;1.00
8372;DHT22;4223;48.724;8.982;2022-10-26T15:14:00;20.80;1.00
8372;DHT22;4223;48.724;8.982;2022-10-26T15:16:29;20.60;99.90
8372;DHT22;4223;48.724;8.982;2022-10-26T15:18:58;20.50;44.40
8372;DHT22;4223;48.724;8.982;2022-10-26T15:21:28;20.30;1.00
8372;DHT22;4223;48.724;8.982;2022-10-26T15:23:58;20.20;23.20
8372;DHT22;4223;48.724;8.982;2022-10-26T15:26:25;20.00;99.90
8372;DHT22;4223;48.724;8.982;2022-10-26T15:28:53;19.70;1.00
8372;DHT22;4223;48.724;8.982;2022-10-26T15:31:31;19.60;1.00
8372;DHT22;4223;48.724;8.982;2022-10-26T15:34:14;19.50;99.90
8372;DHT22;4223;48.724;8.982;2022-10-26T15:36:41;19.40;99.90
8372;DHT22;4223;48.724;8.982;2022-10-26T15:39:10;19.20;99.90
8372;DHT22;4223;48.724;8.982;2022-10-26T15:41:43;19.10;1.00
8372;DHT22;4223;48.724;8.982;2022-10-26T15:44:12;18.90;99.90
8372;DHT22;4223;48.724;8.982;2022-10-26T15:46:40;18.70;99.90
8372;DHT22;4223;48.724;8.982;2022-10-26T15:49:14;18.50;1.00
8372;DHT22;4223;48.724;8.982;2022-10-26T15:51:43;18.20;1.00
8372;DHT22;4223;48.724;8.982;2022-10-26T15:54:12;18.00;1.00
8372;DHT22;4223;48.724;8.982;2022-10-26T15:56:39;17.70;1.00
8372;DHT22;4223;48.724;8.982;2022-10-26T15:59:13;17.50;1.00
8372;DHT22;4223;48.724;8.982;2022-10-26T16:01:40;17.40;1.00
8372;DHT22;4223;48.724;8.982;2022-10-26T16:04:08;17.10;1.00
8372;DHT22;4223;48.724;8.982;2022-10-26T16:06:35;17.00;8.90
8372;DHT22;4223;48.724;8.982;2022-10-26T16:09:05;16.80;8.80
8372;DHT22;4223;48.724;8.982;2022-10-26T16:11:34;16.60;19.70
8372;DHT22;4223;48.724;8.982;2022-10-26T16:14:00;16.50;38.80
8372;DHT22;4223;48.724;8.982;2022-10-26T16:16:27;16.30;49.00
8372;DHT22;4223;48.724;8.982;2022-10-26T16:18:55;16.20;61.40
8372;DHT22;4223;48.724;8.982;2022-10-26T16:21:23;16.00;72.00
8372;DHT22;4223;48.724;8.982;2022-10-26T16:23:52;15.90;73.20
8372;DHT22;4223;48.724;8.982;2022-10-26T16:26:20;15.80;77.10
8372;DHT22;4223;48.724;8.982;2022-10-26T16:28:49;15.70;76.20
8372;DHT22;4223;48.724;8.982;2022-10-26T16:31:18;15.60;80.30
8372;DHT22;4223;48.724;8.982;2022-10-26T16:33:45;15.60;81.20
8372;DHT22;4223;48.724;8.982;2022-10-26T16:36:12;15.50;81.00
8372;DHT22;4223;48.724;8.982;2022-10-26T16:38:39;15.40;89.20
8372;DHT22;4223;48.724;8.982;2022-10-26T16:41:07;15.30;90.20